Burnaby, Canada
Current Conditions -  °F | °C
As of 4:00 AM on Saturday 25 Oct 2014 (Local Time) from CYVR Reporting Station
Light Rain Light Rain  
Wind Chill: 48°   Ceiling: 3900
Heat Index: 48°   Visibility: 10mi
Dew Point: 46°   Wind: 2mph
Humidity: 93%   Direction: 360°N
Pressure: 29.64"   Gusts: NA
Location:  49.24°N, 122.97°W
Report Text: CYVR 251100Z 36002KT 10SM -RA BKN039 OVC059 09/08 A2964 RMK SC5NS3 SLP037
Loading
Personal Weather Stations






























Interactive Weather Map
Tropical Storm Tracking
New forecast layout! Learn more

10-Day Weather Forecast

Advertisements
Track Severe Weather on mobile